KVPC Airport (Cartersville) Information

FAA: VPC - ICAO: KVPC

KVPC Airport Location

State Georgia
County Bartow
City Cartersville
KVPC Airport is 3 miles southwest of Cartersville, GA.
Latitude 34-07-23.3310N
Longitude 084-50-55.3440W
Elevation 758ft

KVPC Airport METARs

METAR KVPC 071935Z AUTO 25005KT 10SM OVC025 22/18 A3024 RMK AO2
Altimeter 30.24"
Temperature 22.0°C (71.6°F)
Wind 250° at 5KT
Clouds overcast at 2,500ft
Visibility 10.0mi
Time observed: 2022-12-07T19:35:00Z

KVPC Airport Details

Status Operational
Activation June 1969
Ownership Public
Usage Public
Chart ATLANTA
ATC on-site No
Beacon schedule sunset-sunrise
Beacon color clear green

KVPC Airport Contacts

Owner CITY OF CARTERSVILLE
Owner address PO BOX 1390, CARTERSVILLE, GA 30120
Owner phone 770-387-5672
Manager THOMAS NOELL WILSON
Manager address 154 BROADOAK LANE, CARROLLTON, GA 30116
Manager phone 404-834-6775

KVPC Airport (Cartersville) Radio Frequencies

KVPC (Airport) Radio Frequencies

UNICOM 123.05
Common traffic advisory frequency (CTAF) 123.05